sensor_id;sensor_type;location;lat;lon;timestamp;temperature;humidity
21244;DHT22;10780;50.942;4.028;2022-07-31T00:00:41;20.60;99.90
21244;DHT22;10780;50.942;4.028;2022-07-31T00:03:07;20.60;99.90
21244;DHT22;10780;50.942;4.028;2022-07-31T00:05:33;20.60;99.90
21244;DHT22;10780;50.942;4.028;2022-07-31T00:08:00;20.60;99.90
21244;DHT22;10780;50.942;4.028;2022-07-31T00:10:26;20.60;99.90
21244;DHT22;10780;50.942;4.028;2022-07-31T00:12:52;20.50;99.90
21244;DHT22;10780;50.942;4.028;2022-07-31T00:15:18;20.50;99.90
21244;DHT22;10780;50.942;4.028;2022-07-31T00:17:44;20.40;99.90
21244;DHT22;10780;50.942;4.028;2022-07-31T00:20:11;20.40;99.90
21244;DHT22;10780;50.942;4.028;2022-07-31T00:22:38;20.50;99.90
21244;DHT22;10780;50.942;4.028;2022-07-31T00:25:04;20.50;99.90
21244;DHT22;10780;50.942;4.028;2022-07-31T00:27:30;20.50;99.90
21244;DHT22;10780;50.942;4.028;2022-07-31T00:29:56;20.50;99.90
21244;DHT22;10780;50.942;4.028;2022-07-31T00:32:21;20.50;99.90
21244;DHT22;10780;50.942;4.028;2022-07-31T00:34:47;20.40;99.90
21244;DHT22;10780;50.942;4.028;2022-07-31T00:37:13;20.40;99.90
21244;DHT22;10780;50.942;4.028;2022-07-31T00:39:38;20.40;99.90
21244;DHT22;10780;50.942;4.028;2022-07-31T00:42:04;20.40;99.90
21244;DHT22;10780;50.942;4.028;2022-07-31T00:44:30;20.50;99.90
21244;DHT22;10780;50.942;4.028;2022-07-31T00:46:55;20.50;99.90
21244;DHT22;10780;50.942;4.028;2022-07-31T00:49:21;20.50;99.90
21244;DHT22;10780;50.942;4.028;2022-07-31T00:51:47;20.60;99.90
21244;DHT22;10780;50.942;4.028;2022-07-31T00:54:12;20.60;99.90
21244;DHT22;10780;50.942;4.028;2022-07-31T00:56:38;20.50;99.90
21244;DHT22;10780;50.942;4.028;2022-07-31T00:59:04;20.50;99.90
21244;DHT22;10780;50.942;4.028;2022-07-31T01:01:30;20.60;99.90
21244;DHT22;10780;50.942;4.028;2022-07-31T01:03:55;20.60;99.90
21244;DHT22;10780;50.942;4.028;2022-07-31T01:06:21;20.70;99.90
21244;DHT22;10780;50.942;4.028;2022-07-31T01:08:47;20.80;99.90
21244;DHT22;10780;50.942;4.028;2022-07-31T01:11:43;20.80;99.90
21244;DHT22;10780;50.942;4.028;2022-07-31T01:14:11;20.70;99.90
21244;DHT22;10780;50.942;4.028;2022-07-31T01:16:42;20.80;99.90
21244;DHT22;10780;50.942;4.028;2022-07-31T01:19:36;20.80;99.90
21244;DHT22;10780;50.942;4.028;2022-07-31T01:25:15;20.60;99.90
21244;DHT22;10780;50.942;4.028;2022-07-31T01:28:05;20.60;99.90
21244;DHT22;10780;50.942;4.028;2022-07-31T01:33:26;20.60;99.90
21244;DHT22;10780;50.942;4.028;2022-07-31T01:35:58;20.50;99.90
21244;DHT22;10780;50.942;4.028;2022-07-31T01:38:29;20.50;99.90
21244;DHT22;10780;50.942;4.028;2022-07-31T01:40:59;20.50;99.90
21244;DHT22;10780;50.942;4.028;2022-07-31T01:43:40;20.60;99.90
21244;DHT22;10780;50.942;4.028;2022-07-31T01:46:10;20.50;99.90
21244;DHT22;10780;50.942;4.028;2022-07-31T01:48:37;20.40;99.90
21244;DHT22;10780;50.942;4.028;2022-07-31T01:51:05;20.40;99.90
21244;DHT22;10780;50.942;4.028;2022-07-31T01:53:33;20.30;99.90
21244;DHT22;10780;50.942;4.028;2022-07-31T01:56:01;20.20;99.90
21244;DHT22;10780;50.942;4.028;2022-07-31T01:58:29;20.10;99.90
21244;DHT22;10780;50.942;4.028;2022-07-31T02:00:58;20.10;99.90
21244;DHT22;10780;50.942;4.028;2022-07-31T02:03:25;20.20;99.90
21244;DHT22;10780;50.942;4.028;2022-07-31T02:05:52;20.20;99.90
21244;DHT22;10780;50.942;4.028;2022-07-31T02:08:19;20.20;99.90
21244;DHT22;10780;50.942;4.028;2022-07-31T02:10:46;20.10;99.90
21244;DHT22;10780;50.942;4.028;2022-07-31T02:13:13;20.20;99.90
21244;DHT22;10780;50.942;4.028;2022-07-31T02:15:40;20.10;99.90
21244;DHT22;10780;50.942;4.028;2022-07-31T02:18:09;20.20;99.90
21244;DHT22;10780;50.942;4.028;2022-07-31T02:20:36;20.20;99.90
21244;DHT22;10780;50.942;4.028;2022-07-31T02:23:02;20.10;99.90
21244;DHT22;10780;50.942;4.028;2022-07-31T02:25:28;20.00;99.90
21244;DHT22;10780;50.942;4.028;2022-07-31T02:27:56;20.00;99.90
21244;DHT22;10780;50.942;4.028;2022-07-31T02:30:26;20.00;99.90
21244;DHT22;10780;50.942;4.028;2022-07-31T02:32:52;20.00;99.90
21244;DHT22;10780;50.942;4.028;2022-07-31T02:35:18;20.00;99.90
21244;DHT22;10780;50.942;4.028;2022-07-31T02:37:47;20.00;99.90
21244;DHT22;10780;50.942;4.028;2022-07-31T02:40:14;19.90;99.90
21244;DHT22;10780;50.942;4.028;2022-07-31T02:42:41;20.00;99.90
21244;DHT22;10780;50.942;4.028;2022-07-31T02:45:08;20.10;99.90
21244;DHT22;10780;50.942;4.028;2022-07-31T02:47:35;20.00;99.90
21244;DHT22;10780;50.942;4.028;2022-07-31T02:50:05;20.00;99.90
21244;DHT22;10780;50.942;4.028;2022-07-31T02:52:32;19.90;99.90
21244;DHT22;10780;50.942;4.028;2022-07-31T02:54:58;19.90;99.90
21244;DHT22;10780;50.942;4.028;2022-07-31T02:57:24;19.90;99.90
21244;DHT22;10780;50.942;4.028;2022-07-31T02:59:50;19.90;99.90
21244;DHT22;10780;50.942;4.028;2022-07-31T03:02:16;19.80;99.90
21244;DHT22;10780;50.942;4.028;2022-07-31T03:04:41;19.70;99.90
21244;DHT22;10780;50.942;4.028;2022-07-31T03:07:08;19.70;99.90
21244;DHT22;10780;50.942;4.028;2022-07-31T03:09:34;19.70;99.90
21244;DHT22;10780;50.942;4.028;2022-07-31T03:11:59;19.70;99.90
21244;DHT22;10780;50.942;4.028;2022-07-31T03:14:26;19.70;99.90
21244;DHT22;10780;50.942;4.028;2022-07-31T03:16:53;19.70;99.90
21244;DHT22;10780;50.942;4.028;2022-07-31T03:19:20;19.70;99.90
21244;DHT22;10780;50.942;4.028;2022-07-31T03:21:47;19.70;99.90
21244;DHT22;10780;50.942;4.028;2022-07-31T03:24:14;19.60;99.90
21244;DHT22;10780;50.942;4.028;2022-07-31T03:26:40;19.50;99.90
21244;DHT22;10780;50.942;4.028;2022-07-31T03:29:05;19.50;99.90
21244;DHT22;10780;50.942;4.028;2022-07-31T03:31:31;19.50;99.90
21244;DHT22;10780;50.942;4.028;2022-07-31T03:33:56;19.40;99.90
21244;DHT22;10780;50.942;4.028;2022-07-31T03:36:23;19.40;99.90
21244;DHT22;10780;50.942;4.028;2022-07-31T03:38:49;19.50;99.90
21244;DHT22;10780;50.942;4.028;2022-07-31T03:41:14;19.50;99.90
21244;DHT22;10780;50.942;4.028;2022-07-31T03:43:42;19.50;99.90
21244;DHT22;10780;50.942;4.028;2022-07-31T03:46:09;19.50;99.90
21244;DHT22;10780;50.942;4.028;2022-07-31T03:48:34;19.30;99.90
21244;DHT22;10780;50.942;4.028;2022-07-31T03:51:00;19.30;99.90
21244;DHT22;10780;50.942;4.028;2022-07-31T03:53:27;19.30;99.90
21244;DHT22;10780;50.942;4.028;2022-07-31T03:55:54;19.20;99.90
21244;DHT22;10780;50.942;4.028;2022-07-31T03:58:21;19.30;99.90
21244;DHT22;10780;50.942;4.028;2022-07-31T04:00:47;19.30;99.90
21244;DHT22;10780;50.942;4.028;2022-07-31T04:03:13;19.30;99.90
21244;DHT22;10780;50.942;4.028;2022-07-31T04:05:40;19.30;99.90
21244;DHT22;10780;50.942;4.028;2022-07-31T04:08:07;19.30;99.90
21244;DHT22;10780;50.942;4.028;2022-07-31T04:10:33;19.30;99.90
21244;DHT22;10780;50.942;4.028;2022-07-31T04:13:04;19.30;99.90
21244;DHT22;10780;50.942;4.028;2022-07-31T04:15:30;19.30;99.90
21244;DHT22;10780;50.942;4.028;2022-07-31T04:17:55;19.30;99.90
21244;DHT22;10780;50.942;4.028;2022-07-31T04:20:22;19.40;99.90
21244;DHT22;10780;50.942;4.028;2022-07-31T04:22:47;19.50;99.90
21244;DHT22;10780;50.942;4.028;2022-07-31T04:25:13;19.60;99.90
21244;DHT22;10780;50.942;4.028;2022-07-31T04:27:39;19.70;99.90
21244;DHT22;10780;50.942;4.028;2022-07-31T04:30:05;19.70;99.90
21244;DHT22;10780;50.942;4.028;2022-07-31T04:32:31;19.90;99.90
21244;DHT22;10780;50.942;4.028;2022-07-31T04:34:57;20.00;99.90
21244;DHT22;10780;50.942;4.028;2022-07-31T04:37:22;20.00;99.90
21244;DHT22;10780;50.942;4.028;2022-07-31T04:39:48;20.00;99.90
21244;DHT22;10780;50.942;4.028;2022-07-31T04:42:14;20.00;99.90
21244;DHT22;10780;50.942;4.028;2022-07-31T04:44:41;20.00;99.90
21244;DHT22;10780;50.942;4.028;2022-07-31T04:47:07;20.20;99.90
21244;DHT22;10780;50.942;4.028;2022-07-31T04:49:33;20.30;99.90
21244;DHT22;10780;50.942;4.028;2022-07-31T04:51:59;20.30;99.90
21244;DHT22;10780;50.942;4.028;2022-07-31T04:54:25;20.50;99.90
21244;DHT22;10780;50.942;4.028;2022-07-31T04:56:51;20.50;99.90
21244;DHT22;10780;50.942;4.028;2022-07-31T04:59:19;20.60;99.90
21244;DHT22;10780;50.942;4.028;2022-07-31T05:01:46;20.70;99.90
21244;DHT22;10780;50.942;4.028;2022-07-31T05:04:12;20.80;99.90
21244;DHT22;10780;50.942;4.028;2022-07-31T05:06:48;20.60;99.90
21244;DHT22;10780;50.942;4.028;2022-07-31T05:09:20;20.60;99.90
21244;DHT22;10780;50.942;4.028;2022-07-31T05:11:50;20.60;99.90
21244;DHT22;10780;50.942;4.028;2022-07-31T05:14:17;20.60;99.90
21244;DHT22;10780;50.942;4.028;2022-07-31T05:16:43;20.60;99.90
21244;DHT22;10780;50.942;4.028;2022-07-31T05:19:09;20.70;99.90
21244;DHT22;10780;50.942;4.028;2022-07-31T05:21:35;20.70;99.90
21244;DHT22;10780;50.942;4.028;2022-07-31T05:24:01;20.80;99.90
21244;DHT22;10780;50.942;4.028;2022-07-31T05:26:28;20.90;99.90
21244;DHT22;10780;50.942;4.028;2022-07-31T05:28:56;21.00;99.90
21244;DHT22;10780;50.942;4.028;2022-07-31T05:31:22;21.10;99.90
21244;DHT22;10780;50.942;4.028;2022-07-31T05:33:49;21.20;99.90
21244;DHT22;10780;50.942;4.028;2022-07-31T05:36:16;21.20;99.90
21244;DHT22;10780;50.942;4.028;2022-07-31T05:38:42;21.30;99.90
21244;DHT22;10780;50.942;4.028;2022-07-31T05:41:08;21.20;99.90
21244;DHT22;10780;50.942;4.028;2022-07-31T05:43:34;21.40;99.90
21244;DHT22;10780;50.942;4.028;2022-07-31T05:46:00;21.30;99.90
21244;DHT22;10780;50.942;4.028;2022-07-31T05:48:26;21.40;99.90
21244;DHT22;10780;50.942;4.028;2022-07-31T05:50:52;21.50;99.90
21244;DHT22;10780;50.942;4.028;2022-07-31T05:53:18;21.70;99.90
21244;DHT22;10780;50.942;4.028;2022-07-31T05:55:46;21.60;99.90
21244;DHT22;10780;50.942;4.028;2022-07-31T05:58:12;21.50;99.90
21244;DHT22;10780;50.942;4.028;2022-07-31T06:00:39;21.50;99.90
21244;DHT22;10780;50.942;4.028;2022-07-31T06:03:04;21.60;99.90
21244;DHT22;10780;50.942;4.028;2022-07-31T06:05:31;21.70;99.90
21244;DHT22;10780;50.942;4.028;2022-07-31T06:07:58;21.70;99.90
21244;DHT22;10780;50.942;4.028;2022-07-31T06:10:24;21.70;99.90
21244;DHT22;10780;50.942;4.028;2022-07-31T06:12:50;21.70;99.90
21244;DHT22;10780;50.942;4.028;2022-07-31T06:15:15;21.60;99.90
21244;DHT22;10780;50.942;4.028;2022-07-31T06:17:41;21.70;99.90
21244;DHT22;10780;50.942;4.028;2022-07-31T06:20:08;21.80;99.90
21244;DHT22;10780;50.942;4.028;2022-07-31T06:22:35;22.10;99.90
21244;DHT22;10780;50.942;4.028;2022-07-31T06:25:00;22.00;99.90
21244;DHT22;10780;50.942;4.028;2022-07-31T06:27:26;22.30;99.90
21244;DHT22;10780;50.942;4.028;2022-07-31T06:29:52;22.20;99.90
21244;DHT22;10780;50.942;4.028;2022-07-31T06:32:18;22.00;99.90
21244;DHT22;10780;50.942;4.028;2022-07-31T06:34:45;22.10;99.90
21244;DHT22;10780;50.942;4.028;2022-07-31T06:37:10;22.10;99.90
21244;DHT22;10780;50.942;4.028;2022-07-31T06:39:36;22.30;99.90
21244;DHT22;10780;50.942;4.028;2022-07-31T06:42:02;22.10;99.90
21244;DHT22;10780;50.942;4.028;2022-07-31T06:44:28;22.30;99.90
21244;DHT22;10780;50.942;4.028;2022-07-31T06:46:54;22.30;99.90
21244;DHT22;10780;50.942;4.028;2022-07-31T06:49:20;22.30;99.90
21244;DHT22;10780;50.942;4.028;2022-07-31T06:51:45;22.20;99.90
21244;DHT22;10780;50.942;4.028;2022-07-31T06:54:11;22.00;99.90
21244;DHT22;10780;50.942;4.028;2022-07-31T06:56:38;22.30;99.90
21244;DHT22;10780;50.942;4.028;2022-07-31T06:59:04;22.40;99.90
21244;DHT22;10780;50.942;4.028;2022-07-31T07:01:30;22.30;99.90
21244;DHT22;10780;50.942;4.028;2022-07-31T07:03:56;22.40;99.90
21244;DHT22;10780;50.942;4.028;2022-07-31T07:06:22;22.50;99.90
21244;DHT22;10780;50.942;4.028;2022-07-31T07:08:48;22.40;99.90
21244;DHT22;10780;50.942;4.028;2022-07-31T07:11:13;22.40;99.90
21244;DHT22;10780;50.942;4.028;2022-07-31T07:13:39;22.20;99.90
21244;DHT22;10780;50.942;4.028;2022-07-31T07:16:05;22.10;99.90
21244;DHT22;10780;50.942;4.028;2022-07-31T07:18:31;22.00;99.90
21244;DHT22;10780;50.942;4.028;2022-07-31T07:20:57;22.00;99.90
21244;DHT22;10780;50.942;4.028;2022-07-31T07:23:22;22.20;99.90
21244;DHT22;10780;50.942;4.028;2022-07-31T07:25:48;22.10;99.90
21244;DHT22;10780;50.942;4.028;2022-07-31T07:28:15;22.00;99.90
21244;DHT22;10780;50.942;4.028;2022-07-31T07:30:40;22.30;99.90
21244;DHT22;10780;50.942;4.028;2022-07-31T07:33:06;22.40;99.90
21244;DHT22;10780;50.942;4.028;2022-07-31T07:35:32;22.60;99.90
21244;DHT22;10780;50.942;4.028;2022-07-31T07:37:58;22.90;99.90
21244;DHT22;10780;50.942;4.028;2022-07-31T07:40:24;23.20;99.90
21244;DHT22;10780;50.942;4.028;2022-07-31T07:42:50;23.10;99.90
21244;DHT22;10780;50.942;4.028;2022-07-31T07:45:16;23.20;99.90
21244;DHT22;10780;50.942;4.028;2022-07-31T07:47:42;23.20;99.90
21244;DHT22;10780;50.942;4.028;2022-07-31T07:50:08;23.20;99.90
21244;DHT22;10780;50.942;4.028;2022-07-31T07:52:35;23.40;99.90
21244;DHT22;10780;50.942;4.028;2022-07-31T07:55:01;23.90;99.90
21244;DHT22;10780;50.942;4.028;2022-07-31T07:57:27;24.20;99.90
21244;DHT22;10780;50.942;4.028;2022-07-31T07:59:53;23.80;99.90
21244;DHT22;10780;50.942;4.028;2022-07-31T08:02:18;23.80;99.90
21244;DHT22;10780;50.942;4.028;2022-07-31T08:04:44;24.00;99.90
21244;DHT22;10780;50.942;4.028;2022-07-31T08:07:10;24.10;99.90
21244;DHT22;10780;50.942;4.028;2022-07-31T08:09:36;24.00;99.90
21244;DHT22;10780;50.942;4.028;2022-07-31T08:12:03;24.00;99.90
21244;DHT22;10780;50.942;4.028;2022-07-31T08:14:29;23.90;99.90
21244;DHT22;10780;50.942;4.028;2022-07-31T08:16:55;23.70;99.90
21244;DHT22;10780;50.942;4.028;2022-07-31T08:19:20;23.70;99.90
21244;DHT22;10780;50.942;4.028;2022-07-31T08:21:46;23.70;99.90
21244;DHT22;10780;50.942;4.028;2022-07-31T08:24:12;23.60;99.90
21244;DHT22;10780;50.942;4.028;2022-07-31T08:26:38;23.50;99.90
21244;DHT22;10780;50.942;4.028;2022-07-31T08:29:22;23.50;99.90
21244;DHT22;10780;50.942;4.028;2022-07-31T08:31:48;23.50;99.90
21244;DHT22;10780;50.942;4.028;2022-07-31T08:34:13;23.60;99.90
21244;DHT22;10780;50.942;4.028;2022-07-31T08:36:39;23.90;99.90
21244;DHT22;10780;50.942;4.028;2022-07-31T08:39:05;24.10;99.90
21244;DHT22;10780;50.942;4.028;2022-07-31T08:41:31;24.10;99.90
21244;DHT22;10780;50.942;4.028;2022-07-31T08:44:04;24.10;99.90
21244;DHT22;10780;50.942;4.028;2022-07-31T08:46:32;24.00;99.90
21244;DHT22;10780;50.942;4.028;2022-07-31T08:49:00;24.30;99.90
21244;DHT22;10780;50.942;4.028;2022-07-31T08:51:31;24.60;99.90
21244;DHT22;10780;50.942;4.028;2022-07-31T08:53:58;25.10;99.90
21244;DHT22;10780;50.942;4.028;2022-07-31T08:56:24;25.20;99.90
21244;DHT22;10780;50.942;4.028;2022-07-31T08:58:50;25.60;99.90
21244;DHT22;10780;50.942;4.028;2022-07-31T09:01:16;25.50;99.90
21244;DHT22;10780;50.942;4.028;2022-07-31T09:03:42;25.70;99.90
21244;DHT22;10780;50.942;4.028;2022-07-31T09:06:08;25.60;99.90
21244;DHT22;10780;50.942;4.028;2022-07-31T09:08:35;25.80;99.90
21244;DHT22;10780;50.942;4.028;2022-07-31T09:11:06;26.40;99.90
21244;DHT22;10780;50.942;4.028;2022-07-31T09:13:32;26.60;99.90
21244;DHT22;10780;50.942;4.028;2022-07-31T09:16:01;26.30;99.90
21244;DHT22;10780;50.942;4.028;2022-07-31T09:18:28;26.50;99.90
21244;DHT22;10780;50.942;4.028;2022-07-31T09:21:02;26.40;99.90
21244;DHT22;10780;50.942;4.028;2022-07-31T09:23:29;26.40;99.90
21244;DHT22;10780;50.942;4.028;2022-07-31T09:25:56;26.40;99.90
21244;DHT22;10780;50.942;4.028;2022-07-31T09:30:58;26.80;99.90
21244;DHT22;10780;50.942;4.028;2022-07-31T09:33:25;26.90;99.90
21244;DHT22;10780;50.942;4.028;2022-07-31T09:35:53;27.20;99.90
21244;DHT22;10780;50.942;4.028;2022-07-31T09:38:19;26.80;99.90
21244;DHT22;10780;50.942;4.028;2022-07-31T09:40:45;26.80;99.90
21244;DHT22;10780;50.942;4.028;2022-07-31T09:43:18;26.50;99.90
21244;DHT22;10780;50.942;4.028;2022-07-31T09:45:59;25.80;99.90
21244;DHT22;10780;50.942;4.028;2022-07-31T09:48:25;25.50;99.90
21244;DHT22;10780;50.942;4.028;2022-07-31T09:50:56;25.50;99.90
21244;DHT22;10780;50.942;4.028;2022-07-31T09:53:22;25.60;99.90
21244;DHT22;10780;50.942;4.028;2022-07-31T09:55:52;25.50;99.90
21244;DHT22;10780;50.942;4.028;2022-07-31T09:58:18;25.60;99.90
21244;DHT22;10780;50.942;4.028;2022-07-31T10:00:46;25.80;99.90
21244;DHT22;10780;50.942;4.028;2022-07-31T10:03:13;25.60;99.90
21244;DHT22;10780;50.942;4.028;2022-07-31T10:05:41;25.60;99.90
21244;DHT22;10780;50.942;4.028;2022-07-31T10:08:07;26.30;99.90
21244;DHT22;10780;50.942;4.028;2022-07-31T10:10:35;26.40;99.90
21244;DHT22;10780;50.942;4.028;2022-07-31T10:13:05;26.80;99.90
21244;DHT22;10780;50.942;4.028;2022-07-31T10:15:35;26.70;99.90
21244;DHT22;10780;50.942;4.028;2022-07-31T10:18:01;26.70;99.90
21244;DHT22;10780;50.942;4.028;2022-07-31T10:20:28;27.10;99.90
21244;DHT22;10780;50.942;4.028;2022-07-31T10:23:15;27.30;99.90
21244;DHT22;10780;50.942;4.028;2022-07-31T10:25:48;26.90;99.90
21244;DHT22;10780;50.942;4.028;2022-07-31T10:28:15;26.80;99.90
21244;DHT22;10780;50.942;4.028;2022-07-31T10:30:41;27.00;99.90
21244;DHT22;10780;50.942;4.028;2022-07-31T10:33:07;26.30;99.90
21244;DHT22;10780;50.942;4.028;2022-07-31T10:35:40;26.20;99.90
21244;DHT22;10780;50.942;4.028;2022-07-31T10:38:19;26.50;99.90
21244;DHT22;10780;50.942;4.028;2022-07-31T10:41:11;26.60;99.90
21244;DHT22;10780;50.942;4.028;2022-07-31T10:43:47;26.50;99.90
21244;DHT22;10780;50.942;4.028;2022-07-31T10:46:25;26.60;99.90
21244;DHT22;10780;50.942;4.028;2022-07-31T10:48:52;26.80;99.90
21244;DHT22;10780;50.942;4.028;2022-07-31T10:51:18;27.00;99.90
21244;DHT22;10780;50.942;4.028;2022-07-31T10:54:03;27.10;99.90
21244;DHT22;10780;50.942;4.028;2022-07-31T10:56:50;26.70;99.90
21244;DHT22;10780;50.942;4.028;2022-07-31T10:59:26;26.20;99.90
21244;DHT22;10780;50.942;4.028;2022-07-31T11:01:52;26.50;99.90
21244;DHT22;10780;50.942;4.028;2022-07-31T11:04:30;26.90;99.90
21244;DHT22;10780;50.942;4.028;2022-07-31T11:06:59;26.90;99.90
21244;DHT22;10780;50.942;4.028;2022-07-31T11:09:26;26.60;99.90
21244;DHT22;10780;50.942;4.028;2022-07-31T11:11:53;26.70;99.90
21244;DHT22;10780;50.942;4.028;2022-07-31T11:14:30;27.10;99.90
21244;DHT22;10780;50.942;4.028;2022-07-31T11:16:56;27.30;99.90
21244;DHT22;10780;50.942;4.028;2022-07-31T11:19:21;27.20;99.90
21244;DHT22;10780;50.942;4.028;2022-07-31T11:21:47;26.70;99.90
21244;DHT22;10780;50.942;4.028;2022-07-31T11:24:21;26.90;99.90
21244;DHT22;10780;50.942;4.028;2022-07-31T11:26:55;27.20;99.90
21244;DHT22;10780;50.942;4.028;2022-07-31T11:29:33;27.00;99.90
21244;DHT22;10780;50.942;4.028;2022-07-31T11:32:20;27.20;99.90
21244;DHT22;10780;50.942;4.028;2022-07-31T11:34:50;27.40;99.90
21244;DHT22;10780;50.942;4.028;2022-07-31T11:37:22;27.80;99.90
21244;DHT22;10780;50.942;4.028;2022-07-31T11:39:49;27.60;99.90
21244;DHT22;10780;50.942;4.028;2022-07-31T11:42:16;27.50;99.90
21244;DHT22;10780;50.942;4.028;2022-07-31T11:44:42;27.50;99.90
21244;DHT22;10780;50.942;4.028;2022-07-31T11:47:08;27.60;99.90
21244;DHT22;10780;50.942;4.028;2022-07-31T11:49:34;27.90;99.90
21244;DHT22;10780;50.942;4.028;2022-07-31T11:52:03;28.00;99.90
21244;DHT22;10780;50.942;4.028;2022-07-31T11:54:30;28.30;99.90
21244;DHT22;10780;50.942;4.028;2022-07-31T11:56:56;28.20;99.90
21244;DHT22;10780;50.942;4.028;2022-07-31T11:59:32;28.00;99.90
21244;DHT22;10780;50.942;4.028;2022-07-31T12:02:11;27.90;99.90
21244;DHT22;10780;50.942;4.028;2022-07-31T12:04:38;27.90;99.90
21244;DHT22;10780;50.942;4.028;2022-07-31T12:07:05;28.00;99.90
21244;DHT22;10780;50.942;4.028;2022-07-31T12:09:33;27.90;99.90
21244;DHT22;10780;50.942;4.028;2022-07-31T12:12:00;27.70;99.90
21244;DHT22;10780;50.942;4.028;2022-07-31T12:14:30;27.30;99.90
21244;DHT22;10780;50.942;4.028;2022-07-31T12:16:56;27.10;99.90
21244;DHT22;10780;50.942;4.028;2022-07-31T12:19:33;27.10;99.90
21244;DHT22;10780;50.942;4.028;2022-07-31T12:21:59;27.30;99.90
21244;DHT22;10780;50.942;4.028;2022-07-31T12:24:25;27.80;99.90
21244;DHT22;10780;50.942;4.028;2022-07-31T12:26:53;28.20;99.90
21244;DHT22;10780;50.942;4.028;2022-07-31T12:29:31;28.00;99.90
21244;DHT22;10780;50.942;4.028;2022-07-31T12:31:57;28.10;99.90
21244;DHT22;10780;50.942;4.028;2022-07-31T12:34:40;28.00;99.90
21244;DHT22;10780;50.942;4.028;2022-07-31T12:39:58;28.10;99.90
21244;DHT22;10780;50.942;4.028;2022-07-31T12:42:30;28.20;99.90
21244;DHT22;10780;50.942;4.028;2022-07-31T12:44:58;28.10;99.90
21244;DHT22;10780;50.942;4.028;2022-07-31T12:47:28;28.00;99.90
21244;DHT22;10780;50.942;4.028;2022-07-31T12:49:55;27.90;99.90
21244;DHT22;10780;50.942;4.028;2022-07-31T12:52:21;27.70;99.90
21244;DHT22;10780;50.942;4.028;2022-07-31T12:54:48;27.70;99.90
21244;DHT22;10780;50.942;4.028;2022-07-31T12:57:14;28.40;99.90
21244;DHT22;10780;50.942;4.028;2022-07-31T12:59:40;28.30;99.90
21244;DHT22;10780;50.942;4.028;2022-07-31T13:02:06;27.90;99.90
21244;DHT22;10780;50.942;4.028;2022-07-31T13:04:32;28.00;99.90
21244;DHT22;10780;50.942;4.028;2022-07-31T13:06:58;27.90;99.90
21244;DHT22;10780;50.942;4.028;2022-07-31T13:09:24;27.60;99.90
21244;DHT22;10780;50.942;4.028;2022-07-31T13:11:50;27.30;99.90
21244;DHT22;10780;50.942;4.028;2022-07-31T13:14:17;27.70;99.90
21244;DHT22;10780;50.942;4.028;2022-07-31T13:16:44;27.80;99.90
21244;DHT22;10780;50.942;4.028;2022-07-31T13:19:09;28.50;99.90
21244;DHT22;10780;50.942;4.028;2022-07-31T13:21:35;28.30;99.90
21244;DHT22;10780;50.942;4.028;2022-07-31T13:24:01;28.30;99.90
21244;DHT22;10780;50.942;4.028;2022-07-31T13:26:30;28.20;99.90
21244;DHT22;10780;50.942;4.028;2022-07-31T13:28:57;27.90;99.90
21244;DHT22;10780;50.942;4.028;2022-07-31T13:31:23;27.80;99.90
21244;DHT22;10780;50.942;4.028;2022-07-31T13:33:48;27.80;99.90
21244;DHT22;10780;50.942;4.028;2022-07-31T13:36:14;28.00;99.90
21244;DHT22;10780;50.942;4.028;2022-07-31T13:38:39;28.30;99.90
21244;DHT22;10780;50.942;4.028;2022-07-31T13:41:05;28.10;99.90
21244;DHT22;10780;50.942;4.028;2022-07-31T13:43:51;28.00;99.90
21244;DHT22;10780;50.942;4.028;2022-07-31T13:46:18;28.20;99.90
21244;DHT22;10780;50.942;4.028;2022-07-31T13:48:44;28.50;99.90
21244;DHT22;10780;50.942;4.028;2022-07-31T13:51:10;28.70;99.90
21244;DHT22;10780;50.942;4.028;2022-07-31T13:53:35;28.60;99.90
21244;DHT22;10780;50.942;4.028;2022-07-31T13:56:01;28.40;99.90
21244;DHT22;10780;50.942;4.028;2022-07-31T13:58:27;28.90;99.90
21244;DHT22;10780;50.942;4.028;2022-07-31T14:00:54;29.10;99.90
21244;DHT22;10780;50.942;4.028;2022-07-31T14:03:20;28.80;99.90
21244;DHT22;10780;50.942;4.028;2022-07-31T14:05:46;28.70;99.90
21244;DHT22;10780;50.942;4.028;2022-07-31T14:08:12;28.90;99.90
21244;DHT22;10780;50.942;4.028;2022-07-31T14:10:37;28.70;99.90
21244;DHT22;10780;50.942;4.028;2022-07-31T14:13:03;28.60;99.90
21244;DHT22;10780;50.942;4.028;2022-07-31T14:15:28;28.40;99.90
21244;DHT22;10780;50.942;4.028;2022-07-31T14:17:54;28.40;99.90
21244;DHT22;10780;50.942;4.028;2022-07-31T14:20:20;27.80;99.90
21244;DHT22;10780;50.942;4.028;2022-07-31T14:22:45;27.70;99.90
21244;DHT22;10780;50.942;4.028;2022-07-31T14:25:11;27.40;99.90
21244;DHT22;10780;50.942;4.028;2022-07-31T14:27:38;27.50;99.90
21244;DHT22;10780;50.942;4.028;2022-07-31T14:30:08;28.00;99.90
21244;DHT22;10780;50.942;4.028;2022-07-31T14:32:34;28.10;99.90
21244;DHT22;10780;50.942;4.028;2022-07-31T14:35:00;28.00;99.90
21244;DHT22;10780;50.942;4.028;2022-07-31T14:37:25;28.20;99.90
21244;DHT22;10780;50.942;4.028;2022-07-31T14:39:51;28.20;99.90
21244;DHT22;10780;50.942;4.028;2022-07-31T14:42:17;28.00;99.90
21244;DHT22;10780;50.942;4.028;2022-07-31T14:44:44;27.70;99.90
21244;DHT22;10780;50.942;4.028;2022-07-31T14:47:10;27.50;99.90
21244;DHT22;10780;50.942;4.028;2022-07-31T14:49:37;27.40;99.90
21244;DHT22;10780;50.942;4.028;2022-07-31T14:52:03;27.50;99.90
21244;DHT22;10780;50.942;4.028;2022-07-31T14:54:29;27.60;99.90
21244;DHT22;10780;50.942;4.028;2022-07-31T14:56:54;27.40;99.90
21244;DHT22;10780;50.942;4.028;2022-07-31T14:59:20;27.20;99.90
21244;DHT22;10780;50.942;4.028;2022-07-31T15:01:46;27.00;99.90
21244;DHT22;10780;50.942;4.028;2022-07-31T15:04:11;26.70;99.90
21244;DHT22;10780;50.942;4.028;2022-07-31T15:06:37;26.60;99.90
21244;DHT22;10780;50.942;4.028;2022-07-31T15:09:03;26.50;99.90
21244;DHT22;10780;50.942;4.028;2022-07-31T15:11:28;26.80;99.90
21244;DHT22;10780;50.942;4.028;2022-07-31T15:13:54;26.80;99.90
21244;DHT22;10780;50.942;4.028;2022-07-31T15:16:20;26.60;99.90
21244;DHT22;10780;50.942;4.028;2022-07-31T15:18:45;26.50;99.90
21244;DHT22;10780;50.942;4.028;2022-07-31T15:21:11;26.40;99.90
21244;DHT22;10780;50.942;4.028;2022-07-31T15:23:37;26.30;99.90
21244;DHT22;10780;50.942;4.028;2022-07-31T15:26:03;26.30;99.90
21244;DHT22;10780;50.942;4.028;2022-07-31T15:28:29;26.40;99.90
21244;DHT22;10780;50.942;4.028;2022-07-31T15:30:54;26.40;99.90
21244;DHT22;10780;50.942;4.028;2022-07-31T15:33:20;26.20;99.90
21244;DHT22;10780;50.942;4.028;2022-07-31T15:35:46;26.20;99.90
21244;DHT22;10780;50.942;4.028;2022-07-31T15:38:12;26.10;99.90
21244;DHT22;10780;50.942;4.028;2022-07-31T15:40:37;26.00;99.90
21244;DHT22;10780;50.942;4.028;2022-07-31T15:43:03;26.10;99.90